CheckWX is a tool to help pilots better visualize weather data.  It is not intended as a substitute for an official pre-flight weather briefing.

22:38:19 UTC

KADU METAR
Audubon County Airport
Audubon, Iowa, USA
Current

23 mins ago

KADU 262215Z AUTO 00000KT 10SM SCT034 BKN049 BKN055 13/06 A3025 RMK AO2
Observed
Mar-26 @ 22:15 UTC
Visibility
10 SM
Flight Rules
VFR
Cloud Levels
  • Scattered at 3,400' AGL
  • Broken at 4,900' AGL
  • Broken at 5,500' AGL
Temperature
13°C / 55°F
Dewpoint
C / 43°F
Humidity
63%
Altimeter
30.25" Hg
Pressure
1024.42 hPa
Previous

43 mins ago

KADU 262155Z AUTO 17007G17KT 10SM SCT050 14/07 A3025 RMK AO2
Observed
Mar-26 @ 21:55 UTC
Wind
  • 170° at 7 KTS
  • Gusting to 17 KTS
Visibility
10 SM
Flight Rules
VFR
Cloud Levels
  • Scattered at 5,000' AGL
Temperature
14°C / 57°F
Dewpoint
C / 45°F
Humidity
63%
Altimeter
30.25" Hg
Pressure
1024.42 hPa
Previous

1 hour ago

KADU 262135Z AUTO 17004G15KT 10SM SCT033 SCT050 BKN065 13/06 A3026 RMK AO2
Observed
Mar-26 @ 21:35 UTC
Wind
  • 170° at 4 KTS
  • Gusting to 15 KTS
Visibility
10 SM
Flight Rules
VFR
Cloud Levels
  • Scattered at 3,300' AGL
  • Scattered at 5,000' AGL
  • Broken at 6,500' AGL
Temperature
13°C / 55°F
Dewpoint
C / 43°F
Humidity
63%
Altimeter
30.26" Hg
Pressure
1024.72 hPa